createdAt,value
2022-08-07T00:01:43.170Z,60.97
2022-08-07T00:03:53.238Z,61.91
2022-08-07T00:06:29.462Z,61.94
2022-08-07T00:09:17.134Z,60.56
2022-08-07T00:11:55.521Z,62.12
2022-08-07T00:14:25.326Z,63.99
2022-08-07T00:16:52.625Z,64.94
2022-08-07T00:19:21.393Z,66.01
2022-08-07T00:21:55.970Z,64.31
2022-08-07T00:24:24.158Z,63.55
2022-08-07T00:27:06.498Z,64.07
2022-08-07T00:29:37.149Z,67.37
2022-08-07T00:32:05.981Z,67.36
2022-08-07T00:34:35.364Z,67.65
2022-08-07T00:37:02.473Z,68.61
2022-08-07T00:39:32.073Z,67.41
2022-08-07T00:42:02.158Z,69.10
2022-08-07T00:44:33.022Z,69.53
2022-08-07T00:47:00.470Z,70.75
2022-08-07T00:50:20.813Z,69.68
2022-08-07T00:52:14.775Z,70.33
2022-08-07T00:54:46.440Z,68.18
2022-08-07T00:57:13.898Z,69.65
2022-08-07T00:59:41.381Z,70.70
2022-08-07T01:02:13.925Z,71.10
2022-08-07T01:04:56.905Z,72.44
2022-08-07T01:07:27.531Z,71.66
2022-08-07T01:10:06.897Z,71.86
2022-08-07T01:12:53.553Z,69.33
2022-08-07T01:16:00.470Z,71.33
2022-08-07T01:18:10.214Z,73.28
2022-08-07T01:20:57.444Z,74.91
2022-08-07T01:23:36.739Z,75.58
2022-08-07T01:26:07.942Z,73.53
2022-08-07T01:28:46.282Z,70.34
2022-08-07T01:31:19.824Z,71.38
2022-08-07T01:33:47.713Z,72.43
2022-08-07T01:36:33.455Z,73.78
2022-08-07T01:39:01.290Z,76.10
2022-08-07T01:41:31.252Z,75.85
2022-08-07T01:43:59.288Z,76.50
2022-08-07T01:46:28.418Z,77.95
2022-08-07T01:48:59.802Z,74.81
2022-08-07T01:52:02.706Z,75.84
2022-08-07T01:54:32.629Z,76.64
2022-08-07T01:57:24.104Z,76.92
2022-08-07T02:00:01.583Z,77.51
2022-08-07T02:03:12.441Z,77.92
2022-08-07T02:05:48.267Z,75.86
2022-08-07T02:08:24.143Z,75.77
2022-08-07T02:10:55.239Z,77.81
2022-08-07T02:14:00.690Z,77.48
2022-08-07T02:16:16.089Z,79.15
2022-08-07T02:18:46.807Z,79.70
2022-08-07T02:21:16.223Z,79.59
2022-08-07T02:23:45.085Z,79.27
2022-08-07T02:26:32.760Z,79.44
2022-08-07T02:29:02.389Z,79.30
2022-08-07T02:31:32.762Z,81.33
2022-08-07T02:34:10.868Z,80.38
2022-08-07T02:36:41.288Z,78.10
2022-08-07T02:39:16.034Z,79.80
2022-08-07T02:41:50.684Z,80.12
2022-08-07T02:44:23.815Z,81.54
2022-08-07T02:46:55.674Z,81.58
2022-08-07T02:49:29.125Z,80.82
2022-08-07T02:52:21.391Z,78.97
2022-08-07T02:54:50.648Z,79.33
2022-08-07T02:57:22.241Z,82.06
2022-08-07T03:00:00.808Z,82.90
2022-08-07T03:02:28.499Z,83.83
2022-08-07T03:04:56.649Z,84.23
2022-08-07T03:08:05.250Z,83.24
2022-08-07T03:10:11.800Z,82.32
2022-08-07T03:12:42.054Z,82.87
2022-08-07T03:15:10.905Z,83.86
2022-08-07T03:17:53.692Z,79.94
2022-08-07T03:20:21.862Z,81.10
2022-08-07T03:22:50.560Z,83.02
2022-08-07T03:25:21.082Z,81.39
2022-08-07T03:27:59.767Z,82.96
2022-08-07T03:30:37.505Z,80.88
2022-08-07T03:33:05.193Z,79.78
2022-08-07T03:35:43.847Z,77.81
2022-08-07T03:38:21.092Z,74.22
2022-08-07T03:40:57.733Z,72.82
2022-08-07T03:43:26.576Z,70.43
2022-08-07T03:45:53.707Z,70.48
2022-08-07T03:48:20.933Z,70.75
2022-08-07T03:50:55.923Z,69.69
2022-08-07T03:54:00.586Z,69.70
2022-08-07T03:56:14.905Z,69.68
2022-08-07T03:59:08.794Z,68.69
2022-08-07T04:01:30.217Z,68.30
2022-08-07T04:03:59.981Z,67.40
2022-08-07T04:06:37.045Z,67.59
2022-08-07T04:09:05.923Z,66.66
2022-08-07T04:12:23.693Z,66.67
2022-08-07T04:14:38.484Z,66.38
2022-08-07T04:17:20.376Z,65.56
2022-08-07T04:19:56.049Z,65.72
2022-08-07T04:22:27.633Z,66.63
2022-08-07T04:24:58.836Z,66.22
2022-08-07T04:27:28.491Z,64.52
2022-08-07T04:30:04.443Z,64.28
2022-08-07T04:32:37.757Z,65.56
2022-08-07T04:35:07.246Z,65.79
2022-08-07T04:37:40.465Z,65.40
2022-08-07T04:40:29.699Z,66.43
2022-08-07T04:43:02.124Z,65.91
2022-08-07T04:45:57.491Z,66.21
2022-08-07T04:49:01.568Z,65.08
2022-08-07T04:51:51.131Z,66.93
2022-08-07T04:54:22.881Z,65.69
2022-08-07T04:58:12.544Z,66.63
2022-08-07T05:00:18.750Z,66.25
2022-08-07T05:02:58.983Z,66.78
2022-08-07T05:05:53.842Z,66.00
2022-08-07T05:08:45.765Z,65.96
2022-08-07T05:11:27.881Z,65.96
2022-08-07T05:14:51.886Z,63.98
2022-08-07T05:17:11.871Z,64.04
2022-08-07T05:19:45.317Z,63.61
2022-08-07T05:22:26.500Z,64.00
2022-08-07T05:24:57.255Z,62.40
2022-08-07T05:28:02.997Z,62.32
2022-08-07T05:30:16.669Z,61.46
2022-08-07T05:32:59.793Z,61.69
2022-08-07T05:35:33.215Z,64.36
2022-08-07T05:38:08.572Z,64.65
2022-08-07T05:40:38.150Z,63.56
2022-08-07T05:43:18.717Z,64.17
2022-08-07T05:45:48.388Z,65.38
2022-08-07T05:48:15.631Z,66.88
2022-08-07T05:50:44.499Z,66.33
2022-08-07T05:54:13.413Z,62.42
2022-08-07T05:56:01.822Z,63.18
2022-08-07T05:58:36.533Z,63.56
2022-08-07T06:01:06.006Z,62.50
2022-08-07T06:03:53.235Z,63.11
2022-08-07T06:06:29.996Z,62.44
2022-08-07T06:09:04.408Z,63.16
2022-08-07T06:11:33.354Z,63.11
2022-08-07T06:14:13.213Z,63.67
2022-08-07T06:16:50.279Z,62.71
2022-08-07T06:19:52.025Z,62.82
2022-08-07T06:22:14.426Z,62.57
2022-08-07T06:24:57.756Z,61.65
2022-08-07T06:27:44.490Z,62.02
2022-08-07T06:30:31.800Z,63.96
2022-08-07T06:32:59.452Z,61.02
2022-08-07T06:35:39.043Z,61.67
2022-08-07T06:38:20.552Z,61.35
2022-08-07T06:40:50.859Z,62.78
2022-08-07T06:43:22.192Z,64.16
2022-08-07T06:45:49.916Z,60.66
2022-08-07T06:48:24.879Z,58.57
2022-08-07T06:50:54.935Z,55.95
2022-08-07T06:55:27.766Z,55.91
2022-08-07T06:56:15.364Z,52.78
2022-08-07T07:00:11.473Z,51.61
2022-08-07T07:01:43.996Z,48.06
2022-08-07T07:04:32.737Z,49.95
2022-08-07T07:07:10.517Z,48.56
2022-08-07T07:09:48.217Z,46.57
2022-08-07T07:12:38.311Z,47.14
2022-08-07T07:15:26.257Z,46.12
2022-08-07T07:17:58.111Z,44.02
2022-08-07T07:20:36.229Z,41.88
2022-08-07T07:24:10.937Z,41.36
2022-08-07T07:26:35.524Z,44.85
2022-08-07T07:29:39.390Z,41.86
2022-08-07T07:31:44.445Z,42.33
2022-08-07T07:34:19.770Z,41.78
2022-08-07T07:36:52.716Z,41.80
2022-08-07T07:39:25.705Z,41.47
2022-08-07T07:42:13.342Z,42.13
2022-08-07T07:44:49.375Z,42.61
2022-08-07T07:47:23.636Z,42.42
2022-08-07T07:50:36.178Z,41.72
2022-08-07T07:52:41.727Z,40.32
2022-08-07T07:55:10.928Z,42.16
2022-08-07T07:57:51.655Z,39.76
2022-08-07T08:00:29.230Z,40.26
2022-08-07T08:03:16.567Z,39.45
2022-08-07T08:05:53.922Z,38.69
2022-08-07T08:08:35.238Z,36.97
2022-08-07T08:11:06.029Z,39.08
2022-08-07T08:13:53.050Z,36.09
2022-08-07T08:16:24.972Z,37.94
2022-08-07T08:18:55.091Z,36.90
2022-08-07T08:22:02.637Z,40.16
2022-08-07T08:24:57.153Z,37.75
2022-08-07T08:27:39.000Z,38.73
2022-08-07T08:30:17.295Z,40.41
2022-08-07T08:32:53.667Z,41.77
2022-08-07T08:38:41.188Z,38.13
2022-08-07T08:41:57.705Z,41.45
2022-08-07T08:44:29.275Z,40.88
2022-08-07T08:47:09.910Z,39.75
2022-08-07T08:50:05.714Z,42.48
2022-08-07T08:52:40.766Z,42.18
2022-08-07T08:55:54.784Z,39.30
2022-08-07T08:58:50.706Z,42.10
2022-08-07T09:01:40.212Z,42.60
2022-08-07T09:04:35.136Z,41.55
2022-08-07T09:07:24.460Z,41.41
2022-08-07T09:09:56.749Z,40.88
2022-08-07T09:12:32.885Z,40.86
2022-08-07T09:16:23.531Z,41.78
2022-08-07T09:18:20.591Z,38.73
2022-08-07T09:21:58.320Z,38.71
2022-08-07T09:27:59.614Z,39.18
2022-08-07T09:30:40.632Z,39.61
2022-08-07T09:33:41.324Z,40.18
2022-08-07T09:36:22.861Z,38.30
2022-08-07T09:53:22.574Z,41.45
2022-08-07T09:56:03.084Z,38.02
2022-08-07T09:59:14.587Z,37.71
2022-08-07T10:02:35.011Z,38.22
2022-08-07T10:05:17.430Z,40.00
2022-08-07T10:07:54.989Z,38.04
2022-08-07T10:11:16.387Z,42.56
2022-08-07T10:14:11.159Z,41.28
2022-08-07T10:16:59.505Z,41.28
2022-08-07T10:19:55.150Z,38.13
2022-08-07T10:22:46.640Z,39.75
2022-08-07T10:25:42.481Z,41.04
2022-08-07T10:28:31.855Z,39.29
2022-08-07T10:31:58.011Z,39.14
2022-08-07T10:35:08.942Z,41.32
2022-08-07T10:38:00.963Z,42.94
2022-08-07T10:40:34.185Z,39.83
2022-08-07T10:43:34.713Z,38.54
2022-08-07T10:46:09.608Z,37.24
2022-08-07T10:49:03.942Z,37.16
2022-08-07T10:52:02.339Z,39.74
2022-08-07T10:55:01.374Z,37.90
2022-08-07T10:57:58.536Z,39.45
2022-08-07T11:00:39.652Z,40.33
2022-08-07T11:03:37.774Z,38.40
2022-08-07T11:06:26.875Z,41.01
2022-08-07T11:09:11.211Z,39.59
2022-08-07T11:11:53.696Z,39.50
2022-08-07T11:14:44.915Z,39.57
2022-08-07T11:17:56.746Z,37.92
2022-08-07T11:20:47.183Z,37.27
2022-08-07T11:23:30.224Z,38.35
2022-08-07T11:26:09.121Z,39.44
2022-08-07T11:28:53.316Z,41.26
2022-08-07T11:31:30.495Z,36.75
2022-08-07T11:34:16.349Z,36.84
2022-08-07T11:37:02.763Z,38.13
2022-08-07T11:41:18.187Z,38.31
2022-08-07T11:44:17.124Z,37.51
2022-08-07T11:47:38.594Z,42.35
2022-08-07T11:50:32.195Z,39.23
2022-08-07T11:53:08.353Z,38.92
2022-08-07T11:56:09.664Z,38.29
2022-08-07T11:58:49.741Z,37.64
2022-08-07T12:01:59.083Z,38.25
2022-08-07T12:04:43.021Z,38.33
2022-08-07T12:07:27.325Z,41.36
2022-08-07T12:10:05.771Z,38.80
2022-08-07T12:13:11.592Z,38.07
2022-08-07T12:16:06.741Z,39.24
2022-08-07T12:18:45.710Z,38.41
2022-08-07T12:22:35.876Z,38.44
2022-08-07T12:24:38.045Z,39.44
2022-08-07T12:27:16.745Z,38.41
2022-08-07T12:29:51.855Z,41.15
2022-08-07T12:32:34.732Z,39.00
2022-08-07T12:35:08.443Z,39.38
2022-08-07T12:38:11.258Z,37.38
2022-08-07T12:40:47.269Z,37.50
2022-08-07T12:44:01.820Z,40.06
2022-08-07T12:46:32.571Z,39.94
2022-08-07T12:49:25.810Z,42.04
2022-08-07T12:52:17.881Z,39.30
2022-08-07T12:55:00.192Z,40.90
2022-08-07T12:58:00.380Z,41.43
2022-08-07T13:00:35.851Z,42.15
2022-08-07T13:03:26.874Z,41.15
2022-08-07T13:06:29.739Z,44.23
2022-08-07T13:09:33.392Z,46.34
2022-08-07T13:12:28.976Z,46.76
2022-08-07T13:15:32.527Z,47.72
2022-08-07T13:18:26.043Z,50.15
2022-08-07T13:21:02.783Z,53.08
2022-08-07T13:24:01.469Z,53.83
2022-08-07T13:26:56.049Z,55.00
2022-08-07T13:29:42.551Z,54.40
2022-08-07T13:32:42.230Z,55.79
2022-08-07T13:35:24.049Z,54.81
2022-08-07T13:38:13.365Z,54.50
2022-08-07T13:40:58.099Z,54.72
2022-08-07T13:43:27.672Z,56.88
2022-08-07T13:46:20.839Z,57.55
2022-08-07T13:48:51.985Z,56.67
2022-08-07T13:51:28.050Z,57.53
2022-08-07T13:54:16.581Z,56.77
2022-08-07T13:56:51.755Z,52.73
2022-08-07T13:59:30.619Z,55.96
2022-08-07T14:02:08.719Z,53.59
2022-08-07T14:04:50.233Z,54.60
2022-08-07T14:07:27.425Z,51.39
2022-08-07T14:10:12.538Z,52.08
2022-08-07T14:13:00.473Z,50.82
2022-08-07T14:15:39.709Z,49.48
2022-08-07T14:18:29.351Z,49.20
2022-08-07T14:21:21.081Z,49.62
2022-08-07T14:24:03.655Z,49.84
2022-08-07T14:28:09.478Z,51.10
2022-08-07T14:30:05.723Z,51.18
2022-08-07T14:32:46.104Z,50.24
2022-08-07T14:35:45.827Z,51.42
2022-08-07T14:38:09.132Z,50.64
2022-08-07T14:41:14.683Z,51.22
2022-08-07T14:44:08.126Z,50.77
2022-08-07T14:46:51.721Z,52.23
2022-08-07T14:49:57.115Z,51.99
2022-08-07T14:52:10.989Z,49.80
2022-08-07T14:54:42.222Z,52.22
2022-08-07T14:57:18.683Z,51.65
2022-08-07T15:00:04.675Z,52.85
2022-08-07T15:02:34.541Z,52.25
2022-08-07T15:05:02.648Z,51.56
2022-08-07T15:07:47.533Z,49.24
2022-08-07T15:10:26.499Z,51.39
2022-08-07T15:13:00.086Z,49.36
2022-08-07T15:15:39.501Z,52.28
2022-08-07T15:21:44.138Z,50.38
2022-08-07T15:25:13.104Z,50.96
2022-08-07T15:26:55.869Z,48.74
2022-08-07T15:30:06.580Z,52.02
2022-08-07T15:32:13.246Z,52.25
2022-08-07T15:34:56.966Z,51.18
2022-08-07T15:38:04.730Z,49.77
2022-08-07T15:55:18.458Z,51.24
2022-08-07T15:57:53.036Z,48.12
2022-08-07T16:00:34.138Z,49.12
2022-08-07T16:03:21.362Z,50.19
2022-08-07T16:05:57.354Z,47.45
2022-08-07T16:08:31.704Z,47.86
2022-08-07T16:11:26.944Z,48.06
2022-08-07T16:14:04.330Z,47.71
2022-08-07T16:16:43.225Z,47.18
2022-08-07T16:19:59.582Z,48.35
2022-08-07T16:22:55.827Z,47.84
2022-08-07T16:25:54.740Z,49.46
2022-08-07T16:30:07.389Z,49.99
2022-08-07T16:31:51.589Z,49.26
2022-08-07T16:34:48.345Z,51.04
2022-08-07T16:38:06.404Z,50.50
2022-08-07T16:40:37.009Z,49.32
2022-08-07T16:44:02.398Z,50.70
2022-08-07T16:47:16.391Z,49.48
2022-08-07T16:50:36.247Z,50.19
2022-08-07T16:54:02.413Z,50.15
2022-08-07T16:56:20.630Z,49.13
2022-08-07T16:59:11.190Z,50.69
2022-08-07T17:02:04.925Z,50.12
2022-08-07T17:04:50.908Z,50.22
2022-08-07T17:07:51.487Z,49.32
2022-08-07T17:10:32.230Z,50.56
2022-08-07T17:13:40.376Z,50.06
2022-08-07T17:16:24.947Z,48.39
2022-08-07T17:18:51.666Z,49.22
2022-08-07T17:21:24.635Z,49.75
2022-08-07T17:24:37.361Z,48.73
2022-08-07T17:27:19.591Z,50.40
2022-08-07T17:30:15.025Z,49.80
2022-08-07T17:34:08.791Z,49.63
2022-08-07T17:36:02.994Z,49.99
2022-08-07T17:38:39.631Z,50.27
2022-08-07T17:42:01.943Z,50.23
2022-08-07T17:44:49.922Z,48.86
2022-08-07T17:47:55.186Z,50.13
2022-08-07T17:50:49.202Z,50.89
2022-08-07T17:53:59.882Z,50.15
2022-08-07T17:56:28.485Z,50.22
2022-08-07T17:58:56.982Z,50.78
2022-08-07T18:01:36.551Z,50.58
2022-08-07T18:04:24.557Z,50.51
2022-08-07T18:07:21.026Z,51.05
2022-08-07T18:10:07.133Z,50.80
2022-08-07T18:13:11.624Z,52.35
2022-08-07T18:16:00.450Z,50.87
2022-08-07T18:21:03.562Z,51.54
2022-08-07T18:22:03.642Z,52.65
2022-08-07T18:24:51.497Z,53.13
2022-08-07T18:27:49.243Z,55.15
2022-08-07T18:30:31.661Z,56.47
2022-08-07T18:33:32.031Z,56.23
2022-08-07T18:36:35.666Z,55.63
2022-08-07T18:40:05.808Z,56.56
2022-08-07T18:42:29.259Z,58.76
2022-08-07T18:45:42.853Z,59.78
2022-08-07T18:48:08.208Z,58.84
2022-08-07T18:50:49.152Z,61.80
2022-08-07T18:53:46.346Z,64.34
2022-08-07T18:56:40.019Z,63.55
2022-08-07T18:59:59.515Z,65.12
2022-08-07T19:03:11.682Z,62.44
2022-08-07T19:06:16.900Z,67.50
2022-08-07T19:08:46.602Z,67.31
2022-08-07T19:11:37.341Z,68.58
2022-08-07T19:14:17.095Z,64.85
2022-08-07T19:17:05.933Z,66.52
2022-08-07T19:19:48.814Z,67.82
2022-08-07T19:22:31.238Z,65.55
2022-08-07T19:25:05.790Z,66.45
2022-08-07T19:28:57.515Z,66.11
2022-08-07T19:31:06.292Z,65.68
2022-08-07T19:33:18.751Z,65.44
2022-08-07T19:36:01.119Z,66.61
2022-08-07T19:38:32.213Z,66.82
2022-08-07T19:41:02.585Z,66.86
2022-08-07T19:43:48.697Z,67.78
2022-08-07T19:46:26.328Z,66.33
2022-08-07T19:49:02.986Z,66.38
2022-08-07T19:51:52.953Z,65.35
2022-08-07T19:54:31.939Z,64.83
2022-08-07T19:57:59.984Z,64.86
2022-08-07T20:00:02.163Z,64.02
2022-08-07T20:02:39.185Z,64.32
2022-08-07T20:05:08.710Z,63.01
2022-08-07T20:07:47.747Z,64.25
2022-08-07T20:10:37.815Z,64.05
2022-08-07T20:13:23.816Z,64.53
2022-08-07T20:15:57.886Z,63.16
2022-08-07T20:18:33.808Z,61.00
2022-08-07T20:21:03.930Z,62.97
2022-08-07T20:24:00.983Z,63.96
2022-08-07T20:26:45.090Z,60.37
2022-08-07T20:29:48.647Z,61.22
2022-08-07T20:32:05.729Z,61.34
2022-08-07T20:34:54.554Z,60.28
2022-08-07T20:37:29.397Z,58.86
2022-08-07T20:40:02.677Z,57.99
2022-08-07T20:42:31.891Z,59.41
2022-08-07T20:45:01.194Z,61.16
2022-08-07T20:47:56.013Z,69.62
2022-08-07T20:50:22.339Z,71.20
2022-08-07T20:52:51.863Z,73.66
2022-08-07T20:55:23.683Z,75.20
2022-08-07T20:58:03.446Z,77.46
2022-08-07T21:00:42.785Z,75.03
2022-08-07T21:03:14.129Z,71.26
2022-08-07T21:05:55.904Z,69.69
2022-08-07T21:08:34.989Z,68.53
2022-08-07T21:11:05.298Z,70.77
2022-08-07T21:13:44.055Z,71.11
2022-08-07T21:16:37.765Z,65.59
2022-08-07T21:19:32.087Z,67.39
2022-08-07T21:22:16.470Z,65.09
2022-08-07T21:25:17.883Z,65.13
2022-08-07T21:28:02.120Z,64.43
2022-08-07T21:31:31.402Z,64.40
2022-08-07T21:34:48.556Z,65.99
2022-08-07T21:37:58.095Z,66.47
2022-08-07T21:40:41.402Z,65.84
2022-08-07T21:43:17.284Z,64.38
2022-08-07T21:46:09.033Z,68.36
2022-08-07T21:48:58.833Z,68.26
2022-08-07T21:51:54.526Z,68.54
2022-08-07T21:54:33.590Z,67.83
2022-08-07T21:57:05.982Z,68.27
2022-08-07T22:00:04.947Z,68.28
2022-08-07T22:03:05.704Z,67.98
2022-08-07T22:05:44.430Z,68.96
2022-08-07T22:08:18.815Z,69.24
2022-08-07T22:10:50.291Z,68.43
2022-08-07T22:13:17.309Z,69.18
2022-08-07T22:16:38.995Z,69.48
2022-08-07T22:19:18.043Z,69.27
2022-08-07T22:22:10.815Z,69.62
2022-08-07T22:25:08.345Z,71.86
2022-08-07T22:28:06.359Z,72.66
2022-08-07T22:30:59.676Z,73.06
2022-08-07T22:33:53.210Z,73.85
2022-08-07T22:36:47.698Z,74.41
2022-08-07T22:39:52.798Z,73.98
2022-08-07T22:42:53.784Z,73.31
2022-08-07T22:46:04.308Z,74.67
2022-08-07T22:48:56.172Z,73.77
2022-08-07T22:51:36.595Z,74.36
2022-08-07T22:54:49.232Z,76.22
2022-08-07T22:57:37.599Z,76.94
2022-08-07T23:00:29.084Z,76.94
2022-08-07T23:03:23.865Z,76.23
2022-08-07T23:06:08.648Z,76.38
2022-08-07T23:10:00.827Z,76.70
2022-08-07T23:11:59.345Z,77.20
2022-08-07T23:14:50.062Z,76.92
2022-08-07T23:17:32.802Z,76.21
2022-08-07T23:20:51.675Z,76.44
2022-08-07T23:24:04.384Z,77.58
2022-08-07T23:26:39.957Z,78.08
2022-08-07T23:30:36.012Z,77.73
2022-08-07T23:34:21.642Z,78.72
2022-08-07T23:35:23.938Z,78.80
2022-08-07T23:38:01.517Z,78.94
2022-08-07T23:40:39.686Z,78.63
2022-08-07T23:43:37.702Z,78.60
2022-08-07T23:46:30.894Z,79.26
2022-08-07T23:49:50.067Z,78.92
2022-08-07T23:52:58.451Z,78.94
2022-08-07T23:55:53.826Z,78.78
2022-08-07T23:58:43.316Z,79.30
